Time;durP1;ratioP1;P1;durP2;ratioP2;P2;SDS_P1;SDS_P2;PMS_P1;PMS_P2;Temp;Humidity;BMP_temperature;BMP_pressure;BME280_temperature;BME280_humidity;BME280_pressure;Samples;Min_cycle;Max_cycle;Signal;HPM_P1;HPM_P2
2023/12/03 00:00:22;;;;;;;5.55;3.22;;;;;;;25.06;28.24;99916.03;4994519;28;20050;-40
2023/12/03 00:02:47;;;;;;;5.10;2.83;;;;;;;25.05;28.34;99914.50;4979346;28;20036;-40
2023/12/03 00:05:13;;;;;;;4.82;2.80;;;;;;;25.05;28.22;99922.03;4988721;28;20027;-41
2023/12/03 00:07:38;;;;;;;5.20;2.85;;;;;;;25.01;28.22;99922.25;4991903;28;20034;-42
2023/12/03 00:10:05;;;;;;;4.85;2.78;;;;;;;25.02;28.28;99918.22;4992042;28;20097;-41
2023/12/03 00:12:30;;;;;;;5.30;3.10;;;;;;;25.00;28.21;99923.47;4990509;28;20058;-41
2023/12/03 00:14:55;;;;;;;5.03;2.70;;;;;;;25.02;28.31;99925.75;4993629;28;20048;-42
2023/12/03 00:17:21;;;;;;;4.95;2.97;;;;;;;25.01;28.22;99933.28;4987362;28;20022;-42
2023/12/03 00:19:46;;;;;;;4.68;2.60;;;;;;;24.99;28.38;99927.50;4991598;28;20032;-42
2023/12/03 00:22:12;;;;;;;5.30;2.90;;;;;;;24.99;28.16;99930.25;4995586;28;20030;-41
2023/12/03 00:24:37;;;;;;;4.70;2.55;;;;;;;24.98;28.35;99931.50;5000123;28;20049;-42
2023/12/03 00:27:02;;;;;;;4.82;2.85;;;;;;;24.98;28.39;99937.03;4996472;28;20400;-42
2023/12/03 00:29:28;;;;;;;5.10;2.65;;;;;;;24.94;28.23;99930.19;5005495;28;20037;-40
2023/12/03 00:31:53;;;;;;;4.70;2.67;;;;;;;24.97;28.39;99932.78;4996375;28;20473;-40
2023/12/03 00:34:18;;;;;;;4.82;2.60;;;;;;;24.99;28.19;99935.78;4991685;28;20036;-40
2023/12/03 00:36:44;;;;;;;4.90;2.70;;;;;;;24.98;28.33;99937.03;4994707;28;20026;-41
2023/12/03 00:39:10;;;;;;;4.50;2.42;;;;;;;24.98;28.35;99934.25;4993255;28;20445;-40
2023/12/03 00:41:35;;;;;;;4.70;2.50;;;;;;;24.96;28.46;99933.25;4987281;28;20030;-41
2023/12/03 00:44:00;;;;;;;4.50;2.45;;;;;;;24.95;28.36;99926.22;4986377;28;20085;-41
2023/12/03 00:46:26;;;;;;;4.82;2.40;;;;;;;24.94;28.33;99924.66;4995897;28;20477;-43
2023/12/03 00:48:51;;;;;;;4.60;2.50;;;;;;;24.93;28.54;99929.44;4999770;28;20050;-41
2023/12/03 00:51:17;;;;;;;4.80;2.60;;;;;;;24.94;28.34;99939.25;4996376;28;20087;-40
2023/12/03 00:53:42;;;;;;;6.10;2.42;;;;;;;24.94;28.40;99936.50;4997720;28;20021;-42
2023/12/03 00:56:08;;;;;;;5.00;2.63;;;;;;;24.93;28.46;99945.22;4996174;28;20027;-41
2023/12/03 00:58:34;;;;;;;4.60;2.60;;;;;;;24.94;28.34;99946.75;4991537;28;20035;-41
2023/12/03 01:00:59;;;;;;;5.00;2.42;;;;;;;24.93;28.30;99945.22;5003998;28;20061;-42
2023/12/03 01:03:25;;;;;;;4.75;2.50;;;;;;;24.94;28.48;99947.53;4997999;28;20085;-41
2023/12/03 01:05:50;;;;;;;4.82;2.60;;;;;;;24.90;28.42;99944.19;4997934;28;20488;-42
2023/12/03 01:08:15;;;;;;;4.80;2.50;;;;;;;24.89;28.37;99945.44;4988186;28;20035;-41
2023/12/03 01:10:41;;;;;;;4.85;2.40;;;;;;;24.89;28.46;99950.97;4991151;28;20026;-41
2023/12/03 01:13:06;;;;;;;4.47;2.20;;;;;;;24.90;28.27;99951.72;4993093;28;20112;-41
2023/12/03 01:15:32;;;;;;;4.50;2.40;;;;;;;24.87;28.31;99947.94;4993620;28;20036;-41
2023/12/03 01:17:57;;;;;;;4.25;2.22;;;;;;;24.89;28.44;99950.22;4994938;28;20035;-43
2023/12/03 01:20:22;;;;;;;4.97;2.30;;;;;;;24.91;28.29;99950.47;4989475;28;20030;-41
2023/12/03 01:22:48;;;;;;;4.18;2.28;;;;;;;24.89;28.36;99952.97;4991578;28;20469;-41
2023/12/03 01:25:13;;;;;;;4.80;2.50;;;;;;;24.88;28.37;99954.97;4994087;28;20029;-41
2023/12/03 01:27:39;;;;;;;4.65;2.20;;;;;;;24.90;28.39;99946.19;4991121;28;20034;-41
2023/12/03 01:30:04;;;;;;;4.13;2.08;;;;;;;24.88;28.48;99960.50;4992935;28;20018;-41
2023/12/03 01:32:30;;;;;;;4.20;2.08;;;;;;;24.90;28.47;99958.00;4990908;28;20018;-41
2023/12/03 01:34:55;;;;;;;5.18;2.30;;;;;;;24.90;28.49;99962.78;4988518;28;20076;-41
2023/12/03 01:37:21;;;;;;;4.20;2.20;;;;;;;24.89;28.51;99956.50;4997123;28;20391;-41
2023/12/03 01:39:46;;;;;;;4.78;2.35;;;;;;;24.88;28.57;99966.00;4999038;28;20021;-42
2023/12/03 01:42:11;;;;;;;4.55;2.20;;;;;;;24.87;28.58;99956.22;4993469;28;20037;-42
2023/12/03 01:44:37;;;;;;;4.88;2.30;;;;;;;24.85;28.51;99966.97;4988424;28;20478;-41
2023/12/03 01:47:03;;;;;;;4.38;2.10;;;;;;;24.83;28.57;99969.47;4988125;28;20034;-42
2023/12/03 01:49:29;;;;;;;4.10;2.20;;;;;;;24.87;28.59;99972.78;4992472;28;20031;-41
2023/12/03 01:51:54;;;;;;;4.30;2.22;;;;;;;24.88;28.59;99976.28;4996667;28;20034;-41
2023/12/03 01:54:19;;;;;;;3.65;2.00;;;;;;;24.85;28.38;99983.53;4992752;28;20037;-42
2023/12/03 01:56:45;;;;;;;3.92;2.00;;;;;;;24.83;28.47;99980.50;4984638;28;20025;-41
2023/12/03 01:59:10;;;;;;;4.35;2.10;;;;;;;24.83;28.10;99979.75;4966187;28;20048;-41
2023/12/03 02:01:36;;;;;;;4.00;2.00;;;;;;;24.84;28.39;99975.75;4989583;28;20036;-42
2023/12/03 02:04:01;;;;;;;4.00;1.92;;;;;;;24.83;28.46;99986.03;4996055;28;20405;-41
2023/12/03 02:06:26;;;;;;;4.20;2.00;;;;;;;24.84;28.47;99984.78;4993470;28;20030;-41
2023/12/03 02:08:52;;;;;;;4.25;2.10;;;;;;;24.81;28.40;99983.00;4991763;28;20041;-41
2023/12/03 02:11:17;;;;;;;4.18;2.15;;;;;;;24.79;28.49;99985.47;4984185;28;20034;-41
2023/12/03 02:13:42;;;;;;;4.20;1.95;;;;;;;24.79;28.32;99977.19;4991526;28;20028;-41
2023/12/03 02:16:08;;;;;;;4.30;2.10;;;;;;;24.79;28.39;99979.94;4977980;28;20030;-42
2023/12/03 02:18:34;;;;;;;4.10;2.03;;;;;;;24.80;28.48;99980.72;4995431;28;20062;-41
2023/12/03 02:20:59;;;;;;;4.18;2.08;;;;;;;24.79;28.51;99979.94;4993853;28;20367;-41
2023/12/03 02:23:28;;;;;;;3.97;1.98;;;;;;;24.79;28.43;99976.44;4987728;28;20045;-42
2023/12/03 02:25:53;;;;;;;3.67;1.83;;;;;;;24.80;28.35;99978.72;4987924;28;20254;-41
2023/12/03 02:28:19;;;;;;;4.13;2.03;;;;;;;24.81;28.29;99980.22;4994421;28;20072;-41
2023/12/03 02:30:44;;;;;;;4.18;2.05;;;;;;;24.81;28.44;99980.22;4994330;28;20027;-41
2023/12/03 02:33:09;;;;;;;4.05;1.95;;;;;;;24.81;28.35;99982.22;4993155;28;20025;-41
2023/12/03 02:35:35;;;;;;;3.75;1.75;;;;;;;24.81;28.45;99977.47;4990713;28;20034;-41
2023/12/03 02:38:00;;;;;;;3.70;1.88;;;;;;;24.81;28.36;99982.22;4991206;28;20033;-41
2023/12/03 02:40:25;;;;;;;3.80;1.80;;;;;;;24.81;28.40;99973.94;4989853;28;20038;-41
2023/12/03 02:42:51;;;;;;;3.88;1.90;;;;;;;24.83;28.42;99985.28;4995089;28;20965;-41
2023/12/03 02:45:17;;;;;;;3.90;2.00;;;;;;;24.79;28.41;99979.94;5001916;28;20026;-41
2023/12/03 02:47:42;;;;;;;3.70;1.80;;;;;;;24.82;28.52;99983.75;4985715;28;20057;-41
2023/12/03 02:50:08;;;;;;;4.00;1.90;;;;;;;24.81;28.55;99996.78;4989182;28;20477;-41
2023/12/03 02:52:33;;;;;;;3.47;1.73;;;;;;;24.81;28.40;99994.03;4994223;28;20073;-41
2023/12/03 02:54:58;;;;;;;3.83;1.80;;;;;;;24.80;28.46;99989.75;4996660;28;20022;-40
2023/12/03 02:57:24;;;;;;;3.83;1.80;;;;;;;24.79;28.35;99991.00;4997186;28;20064;-41
2023/12/03 02:59:49;;;;;;;3.85;2.00;;;;;;;24.78;28.40;99989.47;4990484;28;20025;-40
2023/12/03 03:02:15;;;;;;;4.50;1.90;;;;;;;24.80;28.41;99981.47;4990671;28;20014;-40
2023/12/03 03:04:40;;;;;;;4.07;1.90;;;;;;;24.81;28.35;99987.75;4991494;28;20507;-41
2023/12/03 03:07:06;;;;;;;3.75;1.73;;;;;;;24.80;28.30;99997.28;4997849;28;20030;-41
2023/12/03 03:09:31;;;;;;;3.95;1.85;;;;;;;24.80;28.38;99995.28;4998320;28;20025;-40
2023/12/03 03:11:57;;;;;;;3.17;1.63;;;;;;;24.76;28.42;99994.75;4990386;28;20524;-40
2023/12/03 03:14:23;;;;;;;3.80;1.73;;;;;;;24.78;28.49;100010.84;4990737;28;20026;-41
2023/12/03 03:16:49;;;;;;;3.50;1.60;;;;;;;24.77;28.40;100001.78;4991905;28;20409;-41
2023/12/03 03:19:14;;;;;;;3.83;1.90;;;;;;;24.79;28.51;100007.56;4993576;28;20105;-41
2023/12/03 03:21:40;;;;;;;4.13;1.80;;;;;;;24.79;28.39;99999.28;4990991;28;20029;-41
2023/12/03 03:24:06;;;;;;;3.80;1.77;;;;;;;24.80;28.38;100000.78;4988012;28;20250;-40
2023/12/03 03:26:31;;;;;;;3.28;1.65;;;;;;;24.80;28.42;100003.56;4989967;28;20026;-40
2023/12/03 03:28:56;;;;;;;3.67;1.80;;;;;;;24.77;28.41;99996.28;4998323;28;20481;-40
2023/12/03 03:31:22;;;;;;;3.40;1.60;;;;;;;24.80;28.51;100003.56;4999939;28;20033;-44
2023/12/03 03:33:49;;;;;;;3.75;1.70;;;;;;;24.80;28.34;100003.56;4992218;28;20677;-41
2023/12/03 03:36:14;;;;;;;3.58;1.73;;;;;;;24.81;28.48;100002.31;4980425;28;20022;-41
2023/12/03 03:38:40;;;;;;;3.60;1.80;;;;;;;24.81;28.50;99998.78;4988247;28;20037;-41
2023/12/03 03:41:05;;;;;;;3.65;1.70;;;;;;;24.83;28.37;100010.88;4990294;28;20343;-41
2023/12/03 03:43:31;;;;;;;3.60;1.80;;;;;;;24.80;28.52;100005.56;4991943;28;20069;-41
2023/12/03 03:45:57;;;;;;;3.78;1.80;;;;;;;24.77;28.43;100004.56;4985239;28;20022;-41
2023/12/03 03:48:22;;;;;;;4.00;1.75;;;;;;;24.79;28.28;100013.09;4989087;28;20379;-41
2023/12/03 03:50:47;;;;;;;3.97;1.80;;;;;;;24.78;28.28;100010.84;4983428;28;20033;-41
2023/12/03 03:53:13;;;;;;;3.75;1.63;;;;;;;24.81;28.19;100018.88;4990891;28;20035;-41
2023/12/03 03:55:38;;;;;;;3.70;1.73;;;;;;;24.78;28.34;100024.63;4988023;28;20665;-40
2023/12/03 03:58:03;;;;;;;3.40;1.60;;;;;;;24.76;28.58;100036.16;4992948;28;20014;-41
2023/12/03 04:00:29;;;;;;;3.40;1.60;;;;;;;24.80;28.29;100033.16;4984485;28;20033;-41
2023/12/03 04:02:54;;;;;;;3.85;1.90;;;;;;;24.81;28.29;100034.69;4987214;28;20026;-41
2023/12/03 04:05:20;;;;;;;3.70;1.70;;;;;;;24.79;28.30;100035.16;4992301;28;20068;-41
2023/12/03 04:07:45;;;;;;;3.30;1.63;;;;;;;24.80;28.33;100036.69;4992017;28;20092;-42
2023/12/03 04:10:10;;;;;;;3.50;1.60;;;;;;;24.80;28.42;100028.41;4991040;28;20015;-42
2023/12/03 04:12:36;;;;;;;3.80;1.77;;;;;;;24.80;28.34;100033.94;4987157;28;20030;-41
2023/12/03 04:15:01;;;;;;;4.07;1.88;;;;;;;24.80;28.48;100036.69;4986290;28;20026;-42
2023/12/03 04:17:27;;;;;;;3.33;1.70;;;;;;;24.80;28.11;100031.16;4991027;28;20023;-41
2023/12/03 04:19:52;;;;;;;3.22;1.48;;;;;;;24.85;28.39;100049.81;4995083;28;20030;-41
2023/12/03 04:22:17;;;;;;;3.40;1.65;;;;;;;24.83;28.29;100044.00;4994310;28;20033;-41
2023/12/03 04:24:45;;;;;;;3.63;1.73;;;;;;;24.84;28.31;100048.28;4990554;28;20068;-41
2023/12/03 04:27:10;;;;;;;3.55;1.60;;;;;;;24.81;28.27;100052.00;4986273;28;20029;-41
2023/12/03 04:29:35;;;;;;;3.38;1.63;;;;;;;24.83;28.53;100057.81;4987322;28;20046;-40
2023/12/03 04:32:01;;;;;;;3.17;1.58;;;;;;;24.81;28.28;100060.28;4992649;28;20099;-41
2023/12/03 04:34:26;;;;;;;3.40;1.60;;;;;;;24.81;28.44;100054.78;4997159;28;20030;-41
2023/12/03 04:36:51;;;;;;;3.83;1.70;;;;;;;24.80;28.34;100058.78;4989348;28;20499;-41
2023/12/03 04:39:17;;;;;;;2.83;1.52;;;;;;;24.81;28.36;100062.28;4986971;28;20076;-41
2023/12/03 04:41:42;;;;;;;3.85;1.70;;;;;;;24.84;28.31;100069.63;4989701;28;20034;-41
2023/12/03 04:44:07;;;;;;;3.70;1.80;;;;;;;24.75;28.53;100072.53;4991296;28;20036;-42
2023/12/03 04:46:33;;;;;;;4.00;1.90;;;;;;;24.72;27.99;100074.25;4989210;28;20021;-43
2023/12/03 04:48:58;;;;;;;4.70;2.00;;;;;;;24.69;27.81;100081.47;4989868;28;20018;-41
2023/12/03 04:51:23;;;;;;;4.20;2.10;;;;;;;24.68;27.74;100073.69;4986225;28;20022;-41
2023/12/03 04:53:49;;;;;;;4.72;2.20;;;;;;;24.66;27.64;100081.69;4987508;28;20508;-41
2023/12/03 04:56:14;;;;;;;4.57;2.10;;;;;;;24.64;27.72;100078.63;4991904;28;20517;-41
2023/12/03 04:58:40;;;;;;;4.18;1.90;;;;;;;24.63;27.60;100077.88;4989370;28;20026;-41
2023/12/03 05:01:05;;;;;;;4.57;2.15;;;;;;;24.63;27.63;100077.13;4990881;28;20385;-41
2023/12/03 05:03:30;;;;;;;3.80;1.92;;;;;;;24.62;27.85;100076.34;4982932;28;20433;-43
2023/12/03 05:05:56;;;;;;;5.47;2.25;;;;;;;24.62;27.69;100078.34;4986009;28;20033;-41
2023/12/03 05:08:21;;;;;;;3.67;1.90;;;;;;;24.63;27.79;100077.13;4992753;28;20033;-41
2023/12/03 05:10:46;;;;;;;4.82;2.00;;;;;;;24.61;27.79;100074.06;4993718;28;20711;-41
2023/12/03 05:13:14;;;;;;;4.20;1.90;;;;;;;24.59;27.79;100071.03;4996220;28;20015;-41
2023/12/03 05:15:39;;;;;;;;;;;;;;;24.59;27.90;100065.50;4991796;28;20026;-41
2023/12/03 05:18:05;;;;;;;4.15;2.03;;;;;;;24.68;27.90;100065.41;4992407;28;20453;-41
2023/12/03 05:20:30;;;;;;;5.05;2.00;;;;;;;24.66;27.90;100071.41;4993832;28;20482;-42
2023/12/03 05:22:55;;;;;;;6.63;1.98;;;;;;;24.68;28.02;100070.91;4991174;28;20038;-41
2023/12/03 05:25:21;;;;;;;3.80;1.92;;;;;;;24.68;28.06;100074.44;4999702;28;20022;-41
2023/12/03 05:27:46;;;;;;;4.10;1.90;;;;;;;24.69;27.81;100075.97;4991201;28;20486;-41
2023/12/03 05:30:14;;;;;;;3.92;2.20;;;;;;;24.71;28.00;100079.00;4989722;28;20709;-41
2023/12/03 05:32:40;;;;;;;5.18;1.80;;;;;;;24.71;27.83;100083.75;4995491;28;20030;-40
2023/12/03 05:35:06;;;;;;;5.07;2.13;;;;;;;24.73;27.97;100084.81;4998626;28;20897;-41
2023/12/03 05:37:31;;;;;;;3.88;1.80;;;;;;;24.72;28.10;100085.28;4995982;28;20010;-41
2023/12/03 05:39:57;;;;;;;4.90;1.88;;;;;;;24.75;28.09;100087.09;4993689;28;20030;-41
2023/12/03 05:42:22;;;;;;;4.80;1.80;;;;;;;24.76;27.92;100096.88;4992691;28;20145;-41
2023/12/03 05:44:47;;;;;;;3.72;1.95;;;;;;;24.77;28.22;100092.13;4995884;28;20030;-41
2023/12/03 05:47:13;;;;;;;4.20;1.90;;;;;;;24.77;28.12;100095.66;4997718;28;20022;-41
2023/12/03 05:49:39;;;;;;;3.42;1.70;;;;;;;24.77;28.11;100098.41;5004639;28;20034;-40
2023/12/03 05:52:04;;;;;;;4.13;1.90;;;;;;;24.76;28.29;100096.88;4994174;28;20023;-41
2023/12/03 05:54:29;;;;;;;4.75;1.90;;;;;;;24.77;28.17;100098.41;4992147;28;20101;-41
2023/12/03 05:56:55;;;;;;;3.95;1.77;;;;;;;24.78;28.24;100093.66;4993790;28;20029;-42
2023/12/03 05:59:22;;;;;;;4.72;1.80;;;;;;;24.78;28.31;100097.16;4994628;28;20514;-41
2023/12/03 06:01:48;;;;;;;3.63;1.80;;;;;;;24.77;28.17;100098.41;4989822;28;20033;-40
2023/12/03 06:04:13;;;;;;;4.63;1.70;;;;;;;24.78;28.24;100101.94;4988924;28;20088;-41
2023/12/03 06:06:38;;;;;;;6.43;1.75;;;;;;;24.84;28.39;100103.50;4979773;28;20038;-42
2023/12/03 06:09:09;;;;;;;4.80;2.10;;;;;;;24.80;28.73;100097.44;4994758;28;20482;-42
2023/12/03 06:11:35;;;;;;;6.40;2.08;;;;;;;24.80;28.61;100100.19;4992236;28;20030;-41
2023/12/03 06:14:01;;;;;;;5.22;2.35;;;;;;;24.80;28.51;100102.19;4987778;28;20030;-42
2023/12/03 06:16:26;;;;;;;4.65;2.20;;;;;;;24.74;28.56;100102.13;4988580;28;20068;-41
2023/12/03 06:18:51;;;;;;;4.90;2.08;;;;;;;24.75;28.50;100100.13;4988184;28;20080;-42
2023/12/03 06:21:17;;;;;;;5.63;2.40;;;;;;;24.74;28.50;100104.88;4991879;28;20557;-41
2023/12/03 06:23:42;;;;;;;10.32;2.85;;;;;;;24.69;28.51;100098.03;4989445;28;20029;-46
2023/12/03 06:26:08;;;;;;;5.88;2.40;;;;;;;24.69;28.49;100103.56;4992555;28;20030;-44
2023/12/03 06:28:33;;;;;;;6.03;2.50;;;;;;;24.73;28.38;100106.13;4989111;28;20027;-43
2023/12/03 06:30:59;;;;;;;5.57;2.40;;;;;;;24.72;28.28;100112.88;4986404;28;20026;-45
2023/12/03 06:33:24;;;;;;;5.78;2.47;;;;;;;24.71;28.20;100112.13;4990254;28;20405;-47
2023/12/03 06:35:50;;;;;;;5.20;2.65;;;;;;;24.72;27.97;100112.88;4987436;28;20076;-45
2023/12/03 06:38:15;;;;;;;4.90;2.67;;;;;;;24.72;28.07;100110.13;4991916;28;20445;-43
2023/12/03 06:40:41;;;;;;;5.63;2.70;;;;;;;24.75;28.05;100111.94;4992699;28;20048;-45
2023/12/03 06:43:07;;;;;;;6.70;2.83;;;;;;;24.74;28.02;100110.41;4987021;28;20385;-43
2023/12/03 06:45:32;;;;;;;5.38;2.58;;;;;;;24.76;27.65;100120.97;4988424;28;20038;-43
2023/12/03 06:47:58;;;;;;;5.35;2.75;;;;;;;24.77;27.80;100120.50;4990642;28;20040;-44
2023/12/03 06:50:23;;;;;;;5.75;2.65;;;;;;;24.79;27.71;100120.75;4993071;28;20022;-46
2023/12/03 06:52:48;;;;;;;5.18;2.60;;;;;;;24.79;28.02;100125.50;4991661;28;20026;-42
2023/12/03 06:55:14;;;;;;;5.95;2.80;;;;;;;24.76;27.85;100118.22;4991197;28;20022;-42
2023/12/03 06:57:39;;;;;;;6.15;2.83;;;;;;;24.72;27.80;100115.66;4989151;28;20018;-43
2023/12/03 07:00:06;;;;;;;5.30;3.03;;;;;;;24.73;27.87;100117.16;4988961;28;20394;-46
2023/12/03 07:02:31;;;;;;;9.32;2.83;;;;;;;24.74;27.47;100129.75;4996323;28;20022;-44
2023/12/03 07:04:57;;;;;;;7.65;2.60;;;;;;;24.70;27.63;100129.16;4991196;28;20037;-51
2023/12/03 07:07:22;;;;;;;5.80;2.60;;;;;;;24.68;27.55;100124.13;4991036;28;20041;-52
2023/12/03 07:09:47;;;;;;;5.20;2.70;;;;;;;24.68;27.45;100128.88;4993048;28;20032;-45
2023/12/03 07:12:13;;;;;;;4.90;2.63;;;;;;;24.67;27.62;100122.59;4989956;28;20056;-45
2023/12/03 07:14:38;;;;;;;4.80;2.80;;;;;;;24.72;27.54;100118.41;4991437;28;20483;-43
2023/12/03 07:17:04;;;;;;;5.65;2.80;;;;;;;24.69;27.55;100128.41;4990947;28;20117;-43
2023/12/03 07:19:29;;;;;;;4.90;2.80;;;;;;;24.69;27.51;100128.41;4989728;28;20027;-43
2023/12/03 07:21:54;;;;;;;4.93;2.70;;;;;;;24.71;27.51;100127.94;4988948;28;20056;-44
2023/12/03 07:24:21;;;;;;;5.82;2.97;;;;;;;24.74;27.22;100129.75;4989089;28;20030;-42
2023/12/03 07:26:46;;;;;;;5.10;2.80;;;;;;;24.73;27.33;100130.97;4989425;28;20023;-44
2023/12/03 07:29:12;;;;;;;5.03;2.85;;;;;;;24.74;27.45;100124.22;4992353;28;20595;-46
2023/12/03 07:31:37;;;;;;;5.10;2.72;;;;;;;24.77;27.14;100131.53;4989682;28;20034;-47
2023/12/03 07:34:02;;;;;;;4.97;2.80;;;;;;;24.77;27.13;100128.78;4987177;28;20035;-49
2023/12/03 07:36:28;;;;;;;6.07;3.10;;;;;;;24.75;27.41;100136.78;4989176;28;20080;-48
2023/12/03 07:38:53;;;;;;;6.72;3.00;;;;;;;24.76;27.09;100129.25;4992165;28;20024;-44
2023/12/03 07:41:18;;;;;;;5.82;2.90;;;;;;;24.80;26.83;100130.56;4990385;28;20083;-55
2023/12/03 07:43:44;;;;;;;5.05;2.67;;;;;;;24.78;27.27;100121.25;4989139;28;20030;-45
2023/12/03 07:46:16;;;;;;;4.82;2.65;;;;;;;24.80;26.99;100122.28;4986309;28;20030;-53
2023/12/03 07:48:41;;;;;;;4.90;2.70;;;;;;;24.81;27.22;100121.03;4986908;28;20022;-44
2023/12/03 07:51:10;;;;;;;6.57;2.70;;;;;;;24.81;27.13;100123.78;4990200;28;20079;-41
2023/12/03 07:53:35;;;;;;;4.95;2.88;;;;;;;24.83;26.87;100118.56;4992632;28;20030;-50
2023/12/03 07:56:00;;;;;;;4.90;2.80;;;;;;;24.85;27.11;100127.13;4990402;28;20371;-48
2023/12/03 07:58:26;;;;;;;5.47;2.63;;;;;;;24.86;27.04;100128.63;4988861;28;20022;-48
2023/12/03 08:00:52;;;;;;;6.07;2.85;;;;;;;24.84;26.92;100125.59;4987380;28;20064;-44
2023/12/03 08:03:17;;;;;;;5.40;2.65;;;;;;;24.89;27.08;100126.91;4988894;28;20076;-45
2023/12/03 08:05:42;;;;;;;5.75;2.78;;;;;;;24.89;27.19;100124.91;4994521;28;20034;-46
2023/12/03 08:08:08;;;;;;;4.63;2.42;;;;;;;24.88;27.32;100136.44;4990544;28;20088;-48
2023/12/03 08:10:33;;;;;;;5.55;2.47;;;;;;;24.88;27.56;100141.97;4989696;28;20022;-52
2023/12/03 08:12:58;;;;;;;4.57;2.50;;;;;;;24.87;27.56;100146.72;4986874;28;20513;-45
2023/12/03 08:15:24;;;;;;;4.75;2.60;;;;;;;24.86;27.77;100152.72;4991013;28;20107;-44
2023/12/03 08:17:49;;;;;;;5.30;2.72;;;;;;;24.91;27.67;100147.28;4993065;28;20030;-45
2023/12/03 08:20:14;;;;;;;4.75;2.70;;;;;;;24.89;27.73;100152.53;4994269;28;20027;-47
2023/12/03 08:22:40;;;;;;;5.13;2.70;;;;;;;24.88;27.60;100148.25;4992575;28;20080;-45
2023/12/03 08:25:07;;;;;;;4.43;2.50;;;;;;;24.89;27.47;100155.28;4985322;28;20022;-45
2023/12/03 08:27:32;;;;;;;5.13;2.60;;;;;;;25.06;27.32;100153.53;4992138;28;20026;-46
2023/12/03 08:29:58;;;;;;;5.47;2.78;;;;;;;24.99;27.33;100145.66;4989960;28;20842;-45
2023/12/03 08:32:23;;;;;;;5.32;2.78;;;;;;;24.96;27.27;100143.88;4986926;28;20296;-44
2023/12/03 08:34:48;;;;;;;5.53;2.80;;;;;;;24.80;26.77;100147.13;4985870;28;20040;-44
2023/12/03 08:37:13;;;;;;;6.15;3.22;;;;;;;24.90;26.57;100150.53;4985534;28;20038;-44
2023/12/03 08:39:39;;;;;;;6.43;3.10;;;;;;;24.73;26.16;100142.03;4991347;28;20026;-44
2023/12/03 08:42:04;;;;;;;9.05;2.92;;;;;;;24.82;26.39;100143.88;4989165;28;20048;-43
2023/12/03 08:44:31;;;;;;;5.40;2.88;;;;;;;24.87;26.57;100141.22;4989240;28;20026;-45
2023/12/03 08:46:57;;;;;;;5.97;2.88;;;;;;;24.89;26.66;100149.78;4989640;28;20026;-44
2023/12/03 08:49:22;;;;;;;5.88;2.90;;;;;;;24.91;26.80;100146.53;4988556;28;20030;-43
2023/12/03 08:51:47;;;;;;;6.70;2.75;;;;;;;24.95;26.80;100156.16;4998327;28;20026;-45
2023/12/03 08:54:13;;;;;;;4.50;2.50;;;;;;;24.94;26.87;100157.41;4993878;28;20048;-42
2023/12/03 08:56:39;;;;;;;6.10;3.00;;;;;;;24.96;26.66;100149.41;4992666;28;20026;-45
2023/12/03 08:59:04;;;;;;;5.80;2.85;;;;;;;24.94;27.14;100154.66;4989172;28;20040;-44
2023/12/03 09:01:29;;;;;;;7.30;2.80;;;;;;;24.91;26.67;100150.06;4987583;28;20022;-44
2023/12/03 09:03:55;;;;;;;6.65;3.00;;;;;;;24.87;26.89;100152.25;4986941;28;20030;-44
2023/12/03 09:06:20;;;;;;;4.50;2.38;;;;;;;24.75;27.27;100150.59;5001975;28;20639;-48
2023/12/03 09:08:46;;;;;;;4.75;2.55;;;;;;;24.75;27.30;100160.88;4996353;28;20030;-45
2023/12/03 09:11:11;;;;;;;5.20;2.78;;;;;;;24.72;27.25;100165.34;4991634;28;20448;-41
2023/12/03 09:13:36;;;;;;;5.18;3.13;;;;;;;24.76;26.99;100174.19;4989370;28;20038;-41
2023/12/03 09:16:02;;;;;;;5.32;2.72;;;;;;;24.80;27.48;100168.44;4989680;28;20393;-43
2023/12/03 09:18:27;;;;;;;4.90;2.75;;;;;;;24.83;27.08;100170.25;4996634;28;20022;-44
2023/12/03 09:20:53;;;;;;;5.88;2.75;;;;;;;24.80;27.10;100171.22;4996282;28;20026;-43
2023/12/03 09:23:18;;;;;;;5.63;2.90;;;;;;;24.79;26.85;100178.72;4992384;28;20040;-43
2023/12/03 09:25:43;;;;;;;6.85;3.20;;;;;;;24.68;26.61;100173.06;4990515;28;20061;-46
2023/12/03 09:28:10;;;;;;;5.40;2.90;;;;;;;24.71;26.37;100156.28;4990227;28;20064;-43
2023/12/03 09:30:35;;;;;;;5.93;2.80;;;;;;;24.66;26.55;100167.25;4991368;28;20549;-43
2023/12/03 09:33:01;;;;;;;5.40;3.00;;;;;;;24.69;26.85;100163.53;4994485;28;20025;-43
2023/12/03 09:35:29;;;;;;;5.10;3.00;;;;;;;24.70;26.48;100170.56;4992560;28;20394;-43
2023/12/03 09:37:55;;;;;;;5.65;3.30;;;;;;;24.69;26.57;100174.56;4991431;28;20704;-43
2023/12/03 09:40:21;;;;;;;11.48;7.57;;;;;;;24.70;26.66;100162.28;4989426;28;20034;-43
2023/12/03 09:42:47;;;;;;;107.60;59.33;;;;;;;24.66;26.64;100161.72;4993642;28;20486;-45
2023/12/03 09:45:12;;;;;;;135.45;73.22;;;;;;;24.62;25.99;100164.69;4995492;28;20038;-43
2023/12/03 09:47:38;;;;;;;128.98;73.65;;;;;;;24.59;26.49;100164.88;4998115;28;20022;-42
2023/12/03 09:50:06;;;;;;;101.45;56.30;;;;;;;24.59;26.63;100168.41;4976543;28;20022;-44
2023/12/03 09:52:35;;;;;;;87.53;48.28;;;;;;;24.59;26.64;100167.63;4989415;28;20023;-42
2023/12/03 09:55:00;;;;;;;79.05;44.42;;;;;;;24.63;26.94;100173.72;4992902;28;20037;-42
2023/12/03 09:57:29;;;;;;;65.72;38.95;;;;;;;24.65;27.00;100169.25;4981170;28;20022;-42
2023/12/03 10:00:00;;;;;;;53.60;30.92;;;;;;;24.61;26.64;100156.88;4998789;28;20029;-46
2023/12/03 10:02:26;;;;;;;48.15;27.25;;;;;;;24.58;26.28;100166.13;4987057;28;20026;-46
2023/12/03 10:04:52;;;;;;;47.90;27.27;;;;;;;24.62;26.57;100163.91;4989660;28;20030;-44
2023/12/03 10:07:17;;;;;;;41.67;24.30;;;;;;;24.63;26.50;100166.19;4991100;28;20041;-43
2023/12/03 10:09:43;;;;;;;40.10;22.92;;;;;;;24.68;26.42;100162.00;4990422;28;20037;-43
2023/12/03 10:12:09;;;;;;;33.67;20.17;;;;;;;24.77;26.53;100155.63;4990323;28;20034;-45
2023/12/03 10:14:35;;;;;;;30.77;17.92;;;;;;;24.77;26.48;100161.16;4991236;28;20061;-46
2023/12/03 10:17:01;;;;;;;32.67;17.90;;;;;;;24.72;26.60;100157.06;4970734;28;20075;-46
2023/12/03 10:19:27;;;;;;;24.45;15.27;;;;;;;24.72;26.25;100154.31;4995052;28;20049;-48
2023/12/03 10:21:53;;;;;;;25.92;15.07;;;;;;;24.68;26.62;100150.97;4991143;28;20064;-44
2023/12/03 10:24:19;;;;;;;27.55;14.40;;;;;;;24.63;26.61;100146.13;4992166;28;20034;-43
2023/12/03 10:26:54;;;;;;;20.48;12.40;;;;;;;24.54;26.90;100141.50;4991619;28;20410;-43
2023/12/03 10:29:20;;;;;;;22.70;12.50;;;;;;;24.48;27.08;100137.13;4988220;28;20036;-42
2023/12/03 10:31:52;;;;;;;22.70;12.93;;;;;;;24.45;26.82;100138.06;4990457;28;20030;-45
2023/12/03 10:34:18;;;;;;;20.38;11.75;;;;;;;24.47;26.95;100135.59;4994499;28;20152;-46
2023/12/03 10:36:43;;;;;;;21.63;11.52;;;;;;;24.44;26.94;100137.31;4997542;28;20109;-48
2023/12/03 10:39:08;;;;;;;18.48;10.70;;;;;;;24.48;26.85;100134.34;4992753;28;20023;-44
2023/12/03 10:41:34;;;;;;;19.23;10.65;;;;;;;24.50;26.79;100129.88;4987750;28;20045;-44
2023/12/03 10:43:59;;;;;;;22.85;9.77;;;;;;;24.56;26.60;100127.22;4993111;28;20017;-43
2023/12/03 10:46:24;;;;;;;17.23;10.35;;;;;;;24.57;26.64;100123.22;4992486;28;20400;-43
2023/12/03 10:48:50;;;;;;;18.23;9.68;;;;;;;24.62;26.69;100119.75;4998130;28;20117;-43
2023/12/03 10:51:15;;;;;;;17.38;9.45;;;;;;;24.67;26.86;100110.81;4993829;28;20391;-43
2023/12/03 10:53:41;;;;;;;17.17;9.27;;;;;;;24.68;26.79;100101.28;4991817;28;20088;-43
2023/12/03 10:56:07;;;;;;;15.00;8.80;;;;;;;24.72;26.77;100101.84;4989205;28;20037;-43
2023/12/03 10:58:36;;;;;;;14.63;8.32;;;;;;;24.72;26.83;100099.09;4992349;28;20018;-43
2023/12/03 11:01:14;;;;;;;17.35;8.65;;;;;;;24.73;26.97;100097.84;4987410;28;20383;-43
2023/12/03 11:03:56;;;;;;;14.88;8.65;;;;;;;24.77;27.05;100097.66;4971286;28;20093;-43
2023/12/03 11:06:22;;;;;;;13.02;7.88;;;;;;;24.78;26.94;100096.41;4989260;28;20440;-43
2023/12/03 11:08:48;;;;;;;12.48;6.95;;;;;;;24.75;26.90;100092.59;4995019;28;20550;-43
2023/12/03 11:11:13;;;;;;;12.88;7.70;;;;;;;24.79;27.02;100090.38;4986656;28;20028;-42
2023/12/03 11:13:40;;;;;;;12.07;7.05;;;;;;;24.78;26.83;100079.84;4986458;28;20034;-43
2023/12/03 11:16:06;;;;;;;10.57;6.72;;;;;;;24.78;26.73;100077.09;4987874;28;20029;-44
2023/12/03 11:18:31;;;;;;;11.93;7.20;;;;;;;24.79;26.92;100073.81;4986515;28;20026;-43